Terminal Aerodrome Forecast
Issued by NWS

Home | Current Version | Previous Version | Text Only | Print | Product List | Glossary On
Versions: 1 2 3 4 5 6 7 8 9 10 11 12 13 14 15 16 17 18 19 20 21 22 23 24 25 26 27 28
191
FTUS41 KRNK 190520
TAFBCB
TAF
KBCB 190520Z 1906/2006 00000KT P6SM SKC
     FM190900 VRB03KT 3SM BR FEW070
      TEMPO 1909/1912 1/2SM FG BKN001
     FM191300 VRB03KT P6SM FEW250=

USA.gov is the U.S. government's official web portal to all federal, state and local government web resources and services.